createdAt,value
2022-12-08T00:00:25.217Z,977.81
2022-12-08T00:01:25.220Z,977.81
2022-12-08T00:02:25.362Z,977.80
2022-12-08T00:03:25.332Z,977.80
2022-12-08T00:04:25.201Z,977.79
2022-12-08T00:05:25.203Z,977.78
2022-12-08T00:06:25.196Z,977.77
2022-12-08T00:07:25.191Z,977.77
2022-12-08T00:08:25.279Z,977.76
2022-12-08T00:09:25.219Z,977.77
2022-12-08T00:10:48.472Z,977.75
2022-12-08T00:11:26.173Z,977.73
2022-12-08T00:12:25.157Z,977.73
2022-12-08T00:13:25.161Z,977.71
2022-12-08T00:14:25.154Z,977.69
2022-12-08T00:15:25.176Z,977.68
2022-12-08T00:16:25.199Z,977.64
2022-12-08T00:17:25.137Z,977.63
2022-12-08T00:18:25.136Z,977.61
2022-12-08T00:19:25.129Z,977.62
2022-12-08T00:20:25.133Z,977.63
2022-12-08T00:21:25.157Z,977.63
2022-12-08T00:22:25.101Z,977.63
2022-12-08T00:23:25.104Z,977.63
2022-12-08T00:24:25.092Z,977.62
2022-12-08T00:25:25.099Z,977.61
2022-12-08T00:26:25.088Z,977.59
2022-12-08T00:27:25.071Z,977.59
2022-12-08T00:28:25.064Z,977.59
2022-12-08T00:29:25.076Z,977.58
2022-12-08T00:30:25.069Z,977.58
2022-12-08T00:31:25.097Z,977.55
2022-12-08T00:32:25.066Z,977.54
2022-12-08T00:33:25.058Z,977.52
2022-12-08T00:34:25.032Z,977.51
2022-12-08T00:35:25.020Z,977.50
2022-12-08T00:36:25.020Z,977.49
2022-12-08T00:37:25.032Z,977.48
2022-12-08T00:38:25.007Z,977.47
2022-12-08T00:39:25.005Z,977.46
2022-12-08T00:40:25.003Z,977.45
2022-12-08T00:41:24.989Z,977.46
2022-12-08T00:42:24.977Z,977.47
2022-12-08T00:43:24.995Z,977.47
2022-12-08T00:44:24.975Z,977.47
2022-12-08T00:45:24.958Z,977.44
2022-12-08T00:46:24.996Z,977.44
2022-12-08T00:47:25.244Z,977.41
2022-12-08T00:48:24.967Z,977.40
2022-12-08T00:49:24.945Z,977.37
2022-12-08T00:50:24.931Z,977.36
2022-12-08T00:51:24.946Z,977.35
2022-12-08T00:52:24.924Z,977.35
2022-12-08T00:53:24.916Z,977.33
2022-12-08T00:54:24.936Z,977.33
2022-12-08T00:55:24.905Z,977.35
2022-12-08T00:56:24.906Z,977.34
2022-12-08T00:57:24.896Z,977.33
2022-12-08T00:58:24.883Z,977.33
2022-12-08T00:59:24.910Z,977.32
2022-12-08T01:00:24.881Z,977.32
2022-12-08T01:01:24.960Z,977.32
2022-12-08T01:02:24.887Z,977.32
2022-12-08T01:03:24.957Z,977.31
2022-12-08T01:04:24.865Z,977.31
2022-12-08T01:05:24.866Z,977.30
2022-12-08T01:06:24.857Z,977.29
2022-12-08T01:07:24.843Z,977.27
2022-12-08T01:08:24.881Z,977.25
2022-12-08T01:09:24.833Z,977.24
2022-12-08T01:10:24.846Z,977.23
2022-12-08T01:11:24.849Z,977.22
2022-12-08T01:12:24.800Z,977.21
2022-12-08T01:13:24.808Z,977.24
2022-12-08T01:14:24.801Z,977.26
2022-12-08T01:15:24.799Z,977.26
2022-12-08T01:16:24.858Z,977.26
2022-12-08T01:17:31.828Z,977.28
2022-12-08T01:18:24.770Z,977.30
2022-12-08T01:19:24.790Z,977.31
2022-12-08T01:20:24.765Z,977.33
2022-12-08T01:21:24.758Z,977.33
2022-12-08T01:22:24.752Z,977.34
2022-12-08T01:23:24.745Z,977.35
2022-12-08T01:24:24.740Z,977.37
2022-12-08T01:25:24.742Z,977.38
2022-12-08T01:26:24.738Z,977.39
2022-12-08T01:27:24.717Z,977.38
2022-12-08T01:28:24.734Z,977.38
2022-12-08T01:29:24.710Z,977.38
2022-12-08T01:30:24.754Z,977.37
2022-12-08T01:31:24.722Z,977.37
2022-12-08T01:32:24.679Z,977.37
2022-12-08T01:33:24.700Z,977.36
2022-12-08T01:34:24.699Z,977.36
2022-12-08T01:35:24.679Z,977.36
2022-12-08T01:36:24.674Z,977.35
2022-12-08T01:37:24.657Z,977.36
2022-12-08T01:38:24.645Z,977.36
2022-12-08T01:39:24.638Z,977.38
2022-12-08T01:40:24.692Z,977.39
2022-12-08T01:41:24.646Z,977.40
2022-12-08T01:42:24.626Z,977.39
2022-12-08T01:43:24.635Z,977.40
2022-12-08T01:44:24.612Z,977.41
2022-12-08T01:45:24.610Z,977.42
2022-12-08T01:46:24.660Z,977.41
2022-12-08T01:47:24.642Z,977.41
2022-12-08T01:48:24.671Z,977.42
2022-12-08T01:49:24.586Z,977.42
2022-12-08T01:50:24.580Z,977.42
2022-12-08T01:51:24.580Z,977.42
2022-12-08T01:52:24.569Z,977.40
2022-12-08T01:53:24.585Z,977.39
2022-12-08T01:54:24.573Z,977.38
2022-12-08T01:55:24.545Z,977.36
2022-12-08T01:56:24.546Z,977.35
2022-12-08T01:57:24.549Z,977.33
2022-12-08T01:58:24.547Z,977.31
2022-12-08T01:59:24.558Z,977.32
2022-12-08T02:00:24.543Z,977.30
2022-12-08T02:01:24.569Z,977.30
2022-12-08T02:02:24.582Z,977.29
2022-12-08T02:03:24.508Z,977.28
2022-12-08T02:04:24.515Z,977.28
2022-12-08T02:05:24.520Z,977.26
2022-12-08T02:06:24.482Z,977.26
2022-12-08T02:07:24.474Z,977.26
2022-12-08T02:08:24.502Z,977.25
2022-12-08T02:09:24.471Z,977.24
2022-12-08T02:10:24.454Z,977.23
2022-12-08T02:11:24.480Z,977.22
2022-12-08T02:12:24.449Z,977.23
2022-12-08T02:13:24.453Z,977.22
2022-12-08T02:14:24.450Z,977.20
2022-12-08T02:15:24.434Z,977.19
2022-12-08T02:16:24.485Z,977.18
2022-12-08T02:17:24.446Z,977.18
2022-12-08T02:18:24.429Z,977.17
2022-12-08T02:19:31.968Z,977.17
2022-12-08T02:20:25.398Z,977.16
2022-12-08T02:21:24.402Z,977.14
2022-12-08T02:22:24.415Z,977.13
2022-12-08T02:23:24.387Z,977.12
2022-12-08T02:24:24.387Z,977.11
2022-12-08T02:25:24.391Z,977.11
2022-12-08T02:26:24.363Z,977.10
2022-12-08T02:27:24.378Z,977.10
2022-12-08T02:28:24.363Z,977.10
2022-12-08T02:29:24.368Z,977.10
2022-12-08T02:30:24.349Z,977.07
2022-12-08T02:31:24.380Z,977.06
2022-12-08T02:32:24.332Z,977.05
2022-12-08T02:33:24.359Z,977.05
2022-12-08T02:34:24.323Z,977.04
2022-12-08T02:35:24.311Z,977.03
2022-12-08T02:36:24.303Z,977.04
2022-12-08T02:37:24.303Z,977.03
2022-12-08T02:38:24.298Z,977.01
2022-12-08T02:39:24.318Z,977.01
2022-12-08T02:40:24.290Z,977.00
2022-12-08T02:41:24.295Z,977.01
2022-12-08T02:42:24.276Z,977.02
2022-12-08T02:43:24.290Z,977.02
2022-12-08T02:44:24.274Z,977.03
2022-12-08T02:45:24.325Z,977.03
2022-12-08T02:46:24.316Z,977.01
2022-12-08T02:47:24.264Z,976.99
2022-12-08T02:48:24.244Z,976.98
2022-12-08T02:49:24.262Z,976.97
2022-12-08T02:50:24.227Z,976.98
2022-12-08T02:51:24.218Z,976.98
2022-12-08T02:52:24.213Z,976.98
2022-12-08T02:53:24.213Z,976.96
2022-12-08T02:54:24.209Z,976.96
2022-12-08T02:55:24.218Z,976.93
2022-12-08T02:56:24.192Z,976.93
2022-12-08T02:57:24.194Z,976.92
2022-12-08T02:58:24.183Z,976.91
2022-12-08T02:59:24.184Z,976.90
2022-12-08T03:00:24.178Z,976.88
2022-12-08T03:01:24.226Z,976.86
2022-12-08T03:02:24.221Z,976.87
2022-12-08T03:03:24.151Z,976.86
2022-12-08T03:04:24.161Z,976.86
2022-12-08T03:05:24.134Z,976.86
2022-12-08T03:06:24.148Z,976.87
2022-12-08T03:07:24.135Z,976.87
2022-12-08T03:08:24.186Z,976.86
2022-12-08T03:09:24.127Z,976.84
2022-12-08T03:10:24.105Z,976.82
2022-12-08T03:11:24.120Z,976.79
2022-12-08T03:12:24.120Z,976.76
2022-12-08T03:13:24.092Z,976.75
2022-12-08T03:14:24.090Z,976.74
2022-12-08T03:15:24.088Z,976.73
2022-12-08T03:16:24.169Z,976.71
2022-12-08T03:17:24.087Z,976.70
2022-12-08T03:18:24.080Z,976.68
2022-12-08T03:19:24.056Z,976.66
2022-12-08T03:20:24.052Z,976.65
2022-12-08T03:21:24.050Z,976.66
2022-12-08T03:22:24.073Z,976.65
2022-12-08T03:23:24.033Z,976.65
2022-12-08T03:24:24.028Z,976.64
2022-12-08T03:25:24.031Z,976.64
2022-12-08T03:26:24.033Z,976.64
2022-12-08T03:27:24.019Z,976.65
2022-12-08T03:28:24.028Z,976.64
2022-12-08T03:29:24.004Z,976.63
2022-12-08T03:30:24.017Z,976.62
2022-12-08T03:31:24.027Z,976.59
2022-12-08T03:32:23.991Z,976.55
2022-12-08T03:33:23.988Z,976.54
2022-12-08T03:34:23.978Z,976.52
2022-12-08T03:35:23.995Z,976.53
2022-12-08T03:36:23.981Z,976.51
2022-12-08T03:37:23.956Z,976.50
2022-12-08T03:38:23.950Z,976.50
2022-12-08T03:39:23.965Z,976.51
2022-12-08T03:40:23.960Z,976.51
2022-12-08T03:41:23.945Z,976.49
2022-12-08T03:42:23.966Z,976.45
2022-12-08T03:43:23.929Z,976.47
2022-12-08T03:44:23.926Z,976.47
2022-12-08T03:45:23.940Z,976.45
2022-12-08T03:47:10.485Z,976.45
2022-12-08T03:48:10.517Z,976.42
2022-12-08T03:49:10.507Z,976.41
2022-12-08T03:50:10.504Z,976.40
2022-12-08T03:51:10.512Z,976.41
2022-12-08T03:52:10.503Z,976.40
2022-12-08T03:53:10.503Z,976.41
2022-12-08T03:54:10.494Z,976.42
2022-12-08T03:55:10.547Z,976.39
2022-12-08T03:56:10.489Z,976.38
2022-12-08T03:57:10.465Z,976.36
2022-12-08T03:58:10.447Z,976.36
2022-12-08T03:59:10.459Z,976.38
2022-12-08T04:00:10.543Z,976.38
2022-12-08T04:01:10.431Z,976.37
2022-12-08T04:02:10.481Z,976.36
2022-12-08T04:03:10.495Z,976.34
2022-12-08T04:04:10.441Z,976.33
2022-12-08T04:05:10.490Z,976.33
2022-12-08T04:06:10.410Z,976.33
2022-12-08T04:07:10.398Z,976.32
2022-12-08T04:08:10.460Z,976.30
2022-12-08T04:09:10.418Z,976.30
2022-12-08T04:10:10.393Z,976.28
2022-12-08T04:11:10.385Z,976.27
2022-12-08T04:12:10.387Z,976.26
2022-12-08T04:13:10.382Z,976.26
2022-12-08T04:14:10.393Z,976.25
2022-12-08T04:15:10.374Z,976.23
2022-12-08T04:16:10.420Z,976.22
2022-12-08T04:17:10.366Z,976.20
2022-12-08T04:18:10.339Z,976.21
2022-12-08T04:19:10.337Z,976.19
2022-12-08T04:20:10.320Z,976.17
2022-12-08T04:21:10.335Z,976.15
2022-12-08T04:22:10.311Z,976.13
2022-12-08T04:23:12.103Z,976.11
2022-12-08T04:24:10.296Z,976.10
2022-12-08T04:25:10.294Z,976.10
2022-12-08T04:26:10.293Z,976.08
2022-12-08T04:27:10.299Z,976.05
2022-12-08T04:28:10.295Z,976.05
2022-12-08T04:29:10.334Z,976.05
2022-12-08T04:30:10.276Z,976.04
2022-12-08T04:31:10.350Z,976.03
2022-12-08T04:32:10.268Z,976.02
2022-12-08T04:33:10.257Z,976.01
2022-12-08T04:34:10.254Z,976.00
2022-12-08T04:35:10.257Z,975.98
2022-12-08T04:36:10.243Z,975.97
2022-12-08T04:37:10.232Z,975.97
2022-12-08T04:38:10.227Z,975.96
2022-12-08T04:39:10.223Z,975.94
2022-12-08T04:40:10.239Z,975.92
2022-12-08T04:41:10.211Z,975.90
2022-12-08T04:42:10.206Z,975.90
2022-12-08T04:43:10.197Z,975.89
2022-12-08T04:44:10.189Z,975.88
2022-12-08T04:45:10.186Z,975.88
2022-12-08T04:46:10.243Z,975.89
2022-12-08T04:47:10.228Z,975.89
2022-12-08T04:48:10.168Z,975.90
2022-12-08T04:49:10.163Z,975.90
2022-12-08T04:50:10.170Z,975.90
2022-12-08T04:51:10.153Z,975.89
2022-12-08T04:52:10.168Z,975.89
2022-12-08T04:53:10.149Z,975.89
2022-12-08T04:54:10.158Z,975.88
2022-12-08T04:55:10.134Z,975.87
2022-12-08T04:56:10.129Z,975.85
2022-12-08T04:57:10.134Z,975.85
2022-12-08T04:58:10.116Z,975.82
2022-12-08T04:59:10.110Z,975.80
2022-12-08T05:00:10.099Z,975.78
2022-12-08T05:01:10.138Z,975.75
2022-12-08T05:02:10.280Z,975.72
2022-12-08T05:03:10.099Z,975.72
2022-12-08T05:04:10.099Z,975.71
2022-12-08T05:05:10.074Z,975.74
2022-12-08T05:06:10.072Z,975.74
2022-12-08T05:07:10.061Z,975.75
2022-12-08T05:08:10.110Z,975.74
2022-12-08T05:09:10.048Z,975.75
2022-12-08T05:10:10.062Z,975.75
2022-12-08T05:11:10.048Z,975.76
2022-12-08T05:12:10.034Z,975.75
2022-12-08T05:13:10.023Z,975.74
2022-12-08T05:14:10.018Z,975.72
2022-12-08T05:15:10.025Z,975.73
2022-12-08T05:16:10.075Z,975.73
2022-12-08T05:17:10.083Z,975.74
2022-12-08T05:18:10.034Z,975.73
2022-12-08T05:19:09.987Z,975.73
2022-12-08T05:20:09.996Z,975.71
2022-12-08T05:21:09.984Z,975.72
2022-12-08T05:22:09.987Z,975.72
2022-12-08T05:23:09.986Z,975.72
2022-12-08T05:24:09.970Z,975.70
2022-12-08T05:25:09.962Z,975.68
2022-12-08T05:26:09.976Z,975.70
2022-12-08T05:27:09.957Z,975.69
2022-12-08T05:28:39.791Z,975.69
2022-12-08T05:29:10.937Z,975.68
2022-12-08T05:30:09.931Z,975.67
2022-12-08T05:31:09.979Z,975.68
2022-12-08T05:32:09.957Z,975.66
2022-12-08T05:33:09.915Z,975.65
2022-12-08T05:34:09.933Z,975.65
2022-12-08T05:35:09.915Z,975.63
2022-12-08T05:36:09.901Z,975.62
2022-12-08T05:37:09.915Z,975.62
2022-12-08T05:38:09.891Z,975.62
2022-12-08T05:39:09.885Z,975.64
2022-12-08T05:40:09.877Z,975.64
2022-12-08T05:41:09.870Z,975.64
2022-12-08T05:42:09.866Z,975.65
2022-12-08T05:43:09.877Z,975.67
2022-12-08T05:44:09.850Z,975.66
2022-12-08T05:45:09.850Z,975.67
2022-12-08T05:46:09.858Z,975.66
2022-12-08T05:47:09.849Z,975.66
2022-12-08T05:48:09.830Z,975.65
2022-12-08T05:49:09.847Z,975.64
2022-12-08T05:50:09.818Z,975.64
2022-12-08T05:51:09.814Z,975.65
2022-12-08T05:52:09.811Z,975.65
2022-12-08T05:53:09.802Z,975.63
2022-12-08T05:54:09.792Z,975.63
2022-12-08T05:55:09.843Z,975.60
2022-12-08T05:56:11.125Z,975.59
2022-12-08T05:57:09.779Z,975.60
2022-12-08T05:58:09.773Z,975.59
2022-12-08T05:59:09.763Z,975.59
2022-12-08T06:00:09.778Z,975.58
2022-12-08T06:01:09.770Z,975.57
2022-12-08T06:02:09.867Z,975.57
2022-12-08T06:03:09.790Z,975.59
2022-12-08T06:04:09.745Z,975.59
2022-12-08T06:05:09.732Z,975.59
2022-12-08T06:06:09.732Z,975.58
2022-12-08T06:07:15.792Z,975.58
2022-12-08T06:08:10.782Z,975.57
2022-12-08T06:09:09.713Z,975.57
2022-12-08T06:10:09.712Z,975.57
2022-12-08T06:11:09.699Z,975.55
2022-12-08T06:12:09.698Z,975.55
2022-12-08T06:13:09.708Z,975.53
2022-12-08T06:14:09.701Z,975.52
2022-12-08T06:15:09.683Z,975.50
2022-12-08T06:16:09.714Z,975.51
2022-12-08T06:17:09.735Z,975.52
2022-12-08T06:18:09.667Z,975.49
2022-12-08T06:19:09.679Z,975.48
2022-12-08T06:20:09.663Z,975.50
2022-12-08T06:21:09.647Z,975.50
2022-12-08T06:22:09.648Z,975.49
2022-12-08T06:23:09.655Z,975.48
2022-12-08T06:24:09.666Z,975.47
2022-12-08T06:25:10.258Z,975.49
2022-12-08T06:26:09.629Z,975.48
2022-12-08T06:27:09.623Z,975.48
2022-12-08T06:28:09.615Z,975.50
2022-12-08T06:29:09.612Z,975.49
2022-12-08T06:30:09.620Z,975.49
2022-12-08T06:31:09.595Z,975.48
2022-12-08T06:32:09.687Z,975.46
2022-12-08T06:33:09.584Z,975.44
2022-12-08T06:34:09.586Z,975.44
2022-12-08T06:35:09.584Z,975.42
2022-12-08T06:36:09.600Z,975.42
2022-12-08T06:37:09.568Z,975.42
2022-12-08T06:38:09.590Z,975.43
2022-12-08T06:39:09.555Z,975.43
2022-12-08T06:40:09.559Z,975.43
2022-12-08T06:41:09.553Z,975.45
2022-12-08T06:42:09.548Z,975.43
2022-12-08T06:43:09.539Z,975.43
2022-12-08T06:44:09.549Z,975.42
2022-12-08T06:45:09.533Z,975.43
2022-12-08T06:46:09.554Z,975.41
2022-12-08T06:47:09.515Z,975.43
2022-12-08T06:48:09.528Z,975.42
2022-12-08T06:49:09.502Z,975.42
2022-12-08T06:50:09.497Z,975.42
2022-12-08T06:51:09.490Z,975.43
2022-12-08T06:52:09.489Z,975.43
2022-12-08T06:53:09.526Z,975.44
2022-12-08T06:54:09.480Z,975.46
2022-12-08T06:55:09.469Z,975.49
2022-12-08T06:56:09.468Z,975.50
2022-12-08T06:57:09.460Z,975.51
2022-12-08T06:58:09.460Z,975.51
2022-12-08T06:59:09.471Z,975.51
2022-12-08T07:00:09.461Z,975.51
2022-12-08T07:01:09.495Z,975.47
2022-12-08T07:02:09.648Z,975.50
2022-12-08T07:03:09.435Z,975.48
2022-12-08T07:04:09.426Z,975.47
2022-12-08T07:05:09.436Z,975.47
2022-12-08T07:06:09.479Z,975.45
2022-12-08T07:07:09.427Z,975.47
2022-12-08T07:08:09.529Z,975.48
2022-12-08T07:09:09.391Z,975.47
2022-12-08T07:10:09.396Z,975.48
2022-12-08T07:11:09.387Z,975.50
2022-12-08T07:12:09.385Z,975.50
2022-12-08T07:13:09.396Z,975.52
2022-12-08T07:14:09.369Z,975.52
2022-12-08T07:15:09.364Z,975.50
2022-12-08T07:16:09.389Z,975.51
2022-12-08T07:17:09.442Z,975.51
2022-12-08T07:18:16.371Z,975.51
2022-12-08T07:19:09.352Z,975.50
2022-12-08T07:20:09.343Z,975.50
2022-12-08T07:21:09.350Z,975.50
2022-12-08T07:22:09.356Z,975.49
2022-12-08T07:23:09.332Z,975.51
2022-12-08T07:24:09.333Z,975.48
2022-12-08T07:25:09.323Z,975.50
2022-12-08T07:26:09.314Z,975.51
2022-12-08T07:27:09.300Z,975.49
2022-12-08T07:28:09.320Z,975.50
2022-12-08T07:29:09.292Z,975.52
2022-12-08T07:30:09.281Z,975.55
2022-12-08T07:31:09.388Z,975.54
2022-12-08T07:32:09.279Z,975.56
2022-12-08T07:33:09.285Z,975.56
2022-12-08T07:34:09.266Z,975.55
2022-12-08T07:35:09.256Z,975.55
2022-12-08T07:36:09.251Z,975.56
2022-12-08T07:37:09.243Z,975.58
2022-12-08T07:38:09.256Z,975.59
2022-12-08T07:39:09.248Z,975.59
2022-12-08T07:40:09.230Z,975.60
2022-12-08T07:41:09.217Z,975.62
2022-12-08T07:42:09.289Z,975.62
2022-12-08T07:43:09.210Z,975.60
2022-12-08T07:44:09.220Z,975.62
2022-12-08T07:45:09.205Z,975.64
2022-12-08T07:46:09.251Z,975.64
2022-12-08T07:47:09.190Z,975.64
2022-12-08T07:48:09.216Z,975.63
2022-12-08T07:49:09.187Z,975.62
2022-12-08T07:50:09.171Z,975.63
2022-12-08T07:51:09.157Z,975.61
2022-12-08T07:52:09.157Z,975.60
2022-12-08T07:53:09.141Z,975.57
2022-12-08T07:54:09.175Z,975.57
2022-12-08T07:55:09.147Z,975.55
2022-12-08T07:56:09.133Z,975.54
2022-12-08T07:57:09.124Z,975.54
2022-12-08T07:58:09.122Z,975.55
2022-12-08T07:59:09.117Z,975.56
2022-12-08T08:00:09.145Z,975.55
2022-12-08T08:01:09.158Z,975.54
2022-12-08T08:02:23.718Z,975.55
2022-12-08T08:03:10.126Z,975.54
2022-12-08T08:04:09.131Z,975.55
2022-12-08T08:05:09.223Z,975.53
2022-12-08T08:06:09.099Z,975.53
2022-12-08T08:07:09.082Z,975.53
2022-12-08T08:08:09.134Z,975.53
2022-12-08T08:09:09.059Z,975.53
2022-12-08T08:10:09.064Z,975.53
2022-12-08T08:11:14.572Z,975.54
2022-12-08T08:12:30.275Z,975.54
2022-12-08T08:13:10.031Z,975.52
2022-12-08T08:14:09.031Z,975.51
2022-12-08T08:15:09.026Z,975.51
2022-12-08T08:16:09.159Z,975.51
2022-12-08T08:17:09.264Z,975.51
2022-12-08T08:18:09.057Z,975.51
2022-12-08T08:19:09.026Z,975.52
2022-12-08T08:20:09.018Z,975.51
2022-12-08T08:21:43.277Z,975.50
2022-12-08T08:22:09.989Z,975.49
2022-12-08T08:23:08.986Z,975.48
2022-12-08T08:24:09.006Z,975.48
2022-12-08T08:25:08.996Z,975.48
2022-12-08T08:26:08.974Z,975.48
2022-12-08T08:27:08.965Z,975.48
2022-12-08T08:28:08.969Z,975.48
2022-12-08T08:29:08.953Z,975.46
2022-12-08T08:30:08.949Z,975.49
2022-12-08T08:31:09.017Z,975.51
2022-12-08T08:32:08.933Z,975.50
2022-12-08T08:33:08.952Z,975.49
2022-12-08T08:34:08.930Z,975.48
2022-12-08T08:35:08.928Z,975.48
2022-12-08T08:36:08.930Z,975.47
2022-12-08T08:37:08.962Z,975.48
2022-12-08T08:38:08.902Z,975.48
2022-12-08T08:39:08.911Z,975.48
2022-12-08T08:40:08.892Z,975.50
2022-12-08T08:41:08.878Z,975.50
2022-12-08T08:42:08.887Z,975.50
2022-12-08T08:43:08.901Z,975.49
2022-12-08T08:44:08.866Z,975.50
2022-12-08T08:45:08.873Z,975.50
2022-12-08T08:46:09.008Z,975.49
2022-12-08T08:47:08.848Z,975.49
2022-12-08T08:48:08.848Z,975.51
2022-12-08T08:49:08.867Z,975.50
2022-12-08T08:50:09.195Z,975.50
2022-12-08T08:51:08.834Z,975.50
2022-12-08T08:52:08.846Z,975.52
2022-12-08T08:53:08.857Z,975.54
2022-12-08T08:54:08.830Z,975.54
2022-12-08T08:55:08.842Z,975.53
2022-12-08T08:56:08.802Z,975.53
2022-12-08T08:57:08.805Z,975.56
2022-12-08T08:58:08.794Z,975.55
2022-12-08T08:59:08.785Z,975.55
2022-12-08T09:00:08.795Z,975.54
2022-12-08T09:01:08.778Z,975.55
2022-12-08T09:02:08.831Z,975.55
2022-12-08T09:03:08.777Z,975.57
2022-12-08T09:04:08.831Z,975.56
2022-12-08T09:05:08.883Z,975.56
2022-12-08T09:06:08.880Z,975.56
2022-12-08T09:07:08.777Z,975.56
2022-12-08T09:08:08.801Z,975.56
2022-12-08T09:09:08.730Z,975.57
2022-12-08T09:10:09.009Z,975.56
2022-12-08T09:11:08.726Z,975.56
2022-12-08T09:12:08.734Z,975.55
2022-12-08T09:13:08.730Z,975.54
2022-12-08T09:14:08.716Z,975.56
2022-12-08T09:15:08.707Z,975.55
2022-12-08T09:16:08.825Z,975.55
2022-12-08T09:17:08.731Z,975.56
2022-12-08T09:18:08.711Z,975.56
2022-12-08T09:19:08.700Z,975.55
2022-12-08T09:20:08.698Z,975.53
2022-12-08T09:21:08.674Z,975.51
2022-12-08T09:22:08.672Z,975.50
2022-12-08T09:23:08.664Z,975.48
2022-12-08T09:24:08.703Z,975.47
2022-12-08T09:25:08.653Z,975.48
2022-12-08T09:26:08.652Z,975.47
2022-12-08T09:27:08.638Z,975.44
2022-12-08T09:28:08.637Z,975.43
2022-12-08T09:29:08.627Z,975.43
2022-12-08T09:30:08.643Z,975.45
2022-12-08T09:31:08.654Z,975.44
2022-12-08T09:32:08.613Z,975.43
2022-12-08T09:33:08.653Z,975.45
2022-12-08T09:34:08.604Z,975.44
2022-12-08T09:35:08.610Z,975.44
2022-12-08T09:36:08.588Z,975.43
2022-12-08T09:37:08.601Z,975.42
2022-12-08T09:38:08.604Z,975.41
2022-12-08T09:39:08.567Z,975.41
2022-12-08T09:40:08.580Z,975.40
2022-12-08T09:41:08.565Z,975.38
2022-12-08T09:42:08.548Z,975.38
2022-12-08T09:43:08.550Z,975.38
2022-12-08T09:44:08.533Z,975.37
2022-12-08T09:45:08.523Z,975.36
2022-12-08T09:46:08.582Z,975.35
2022-12-08T09:47:08.578Z,975.34
2022-12-08T09:48:08.512Z,975.32
2022-12-08T09:49:08.501Z,975.31
2022-12-08T09:50:08.803Z,975.31
2022-12-08T09:51:08.491Z,975.32
2022-12-08T09:52:08.485Z,975.30
2022-12-08T09:53:08.485Z,975.29
2022-12-08T09:54:08.490Z,975.28
2022-12-08T09:55:08.465Z,975.28
2022-12-08T09:56:08.483Z,975.27
2022-12-08T09:57:08.455Z,975.27
2022-12-08T09:58:08.449Z,975.26
2022-12-08T09:59:08.452Z,975.25
2022-12-08T10:00:08.670Z,975.23
2022-12-08T10:01:08.429Z,975.24
2022-12-08T10:02:08.509Z,975.23
2022-12-08T10:03:11.214Z,975.24
2022-12-08T10:04:09.418Z,975.22
2022-12-08T10:05:08.463Z,975.22
2022-12-08T10:06:08.406Z,975.22
2022-12-08T10:07:08.412Z,975.21
2022-12-08T10:08:08.465Z,975.20
2022-12-08T10:09:11.174Z,975.21
2022-12-08T10:10:08.469Z,975.21
2022-12-08T10:11:08.396Z,975.20
2022-12-08T10:12:08.362Z,975.19
2022-12-08T10:13:08.363Z,975.17
2022-12-08T10:14:08.362Z,975.14
2022-12-08T10:15:08.351Z,975.12
2022-12-08T10:16:08.476Z,975.12
2022-12-08T10:17:08.409Z,975.10
2022-12-08T10:18:08.345Z,975.09
2022-12-08T10:19:08.321Z,975.08
2022-12-08T10:20:08.426Z,975.07
2022-12-08T10:21:08.331Z,975.04
2022-12-08T10:22:08.307Z,975.05
2022-12-08T10:23:08.308Z,975.05
2022-12-08T10:24:08.296Z,975.05
2022-12-08T10:25:08.294Z,975.02
2022-12-08T10:26:08.307Z,975.02
2022-12-08T10:27:08.278Z,975.01
2022-12-08T10:28:08.271Z,975.02
2022-12-08T10:29:08.270Z,975.01
2022-12-08T10:30:08.289Z,975.01
2022-12-08T10:31:08.278Z,975.02
2022-12-08T10:32:08.263Z,975.01
2022-12-08T10:33:08.245Z,975.01
2022-12-08T10:34:08.249Z,974.99
2022-12-08T10:35:08.226Z,974.97
2022-12-08T10:36:08.244Z,974.96
2022-12-08T10:37:08.211Z,974.94
2022-12-08T10:38:08.216Z,974.94
2022-12-08T10:39:08.223Z,974.93
2022-12-08T10:40:08.454Z,974.93
2022-12-08T10:41:08.190Z,974.93
2022-12-08T10:42:08.205Z,974.91
2022-12-08T10:43:08.214Z,974.91
2022-12-08T10:44:08.177Z,974.90
2022-12-08T10:45:08.179Z,974.89
2022-12-08T10:46:08.236Z,974.87
2022-12-08T10:47:08.185Z,974.89
2022-12-08T10:48:08.152Z,974.84
2022-12-08T10:49:08.167Z,974.83
2022-12-08T10:50:08.330Z,974.83
2022-12-08T10:51:08.129Z,974.82
2022-12-08T10:52:08.134Z,974.82
2022-12-08T10:53:08.127Z,974.83
2022-12-08T10:54:08.118Z,974.80
2022-12-08T10:55:08.141Z,974.82
2022-12-08T10:56:08.115Z,974.79
2022-12-08T10:57:08.110Z,974.76
2022-12-08T10:58:08.131Z,974.77
2022-12-08T10:59:08.093Z,974.76
2022-12-08T11:00:13.659Z,974.75
2022-12-08T11:01:09.094Z,974.72
2022-12-08T11:02:08.154Z,974.73
2022-12-08T11:03:08.166Z,974.72
2022-12-08T11:04:08.083Z,974.70
2022-12-08T11:05:08.058Z,974.69
2022-12-08T11:06:10.963Z,974.70
2022-12-08T11:07:08.089Z,974.69
2022-12-08T11:08:08.126Z,974.69
2022-12-08T11:09:08.029Z,974.67
2022-12-08T11:10:08.222Z,974.66
2022-12-08T11:11:08.038Z,974.70
2022-12-08T11:12:08.016Z,974.67
2022-12-08T11:13:08.048Z,974.66
2022-12-08T11:14:08.010Z,974.66
2022-12-08T11:15:07.994Z,974.66
2022-12-08T11:16:08.035Z,974.67
2022-12-08T11:17:07.999Z,974.67
2022-12-08T11:18:08.008Z,974.67
2022-12-08T11:19:07.985Z,974.67
2022-12-08T11:20:08.377Z,974.67
2022-12-08T11:21:07.959Z,974.65
2022-12-08T11:22:07.973Z,974.66
2022-12-08T11:23:07.957Z,974.66
2022-12-08T11:24:07.953Z,974.64
2022-12-08T11:25:07.937Z,974.66
2022-12-08T11:26:07.948Z,974.65
2022-12-08T11:27:07.928Z,974.64
2022-12-08T11:28:07.962Z,974.65
2022-12-08T11:29:07.913Z,974.64
2022-12-08T11:30:13.935Z,974.65
2022-12-08T11:31:08.954Z,974.63
2022-12-08T11:32:07.937Z,974.61
2022-12-08T11:33:07.886Z,974.61
2022-12-08T11:34:07.900Z,974.62
2022-12-08T11:35:07.873Z,974.60
2022-12-08T11:36:07.867Z,974.59
2022-12-08T11:37:07.880Z,974.60
2022-12-08T11:38:20.998Z,974.59
2022-12-08T11:39:08.864Z,974.60
2022-12-08T11:40:08.146Z,974.61
2022-12-08T11:41:13.987Z,974.61
2022-12-08T11:42:07.828Z,974.61
2022-12-08T11:43:07.819Z,974.60
2022-12-08T11:44:07.812Z,974.60
2022-12-08T11:45:07.979Z,974.60
2022-12-08T11:46:07.900Z,974.57
2022-12-08T11:47:07.790Z,974.57
2022-12-08T11:48:07.797Z,974.55
2022-12-08T11:49:07.797Z,974.57
2022-12-08T11:50:07.889Z,974.57
2022-12-08T11:51:07.781Z,974.56
2022-12-08T11:52:07.764Z,974.56
2022-12-08T11:53:07.754Z,974.55
2022-12-08T11:54:07.767Z,974.56
2022-12-08T11:55:07.745Z,974.56
2022-12-08T11:56:07.796Z,974.55
2022-12-08T11:57:07.741Z,974.53
2022-12-08T11:58:07.766Z,974.52
2022-12-08T11:59:07.719Z,974.52
2022-12-08T12:00:07.964Z,974.53
2022-12-08T12:01:07.705Z,974.50
2022-12-08T12:02:07.823Z,974.50
2022-12-08T12:03:07.771Z,974.50
2022-12-08T12:04:07.712Z,974.49
2022-12-08T12:05:07.686Z,974.49
2022-12-08T12:07:07.592Z,974.49
2022-12-08T12:07:08.669Z,974.48
2022-12-08T12:08:07.783Z,974.46
2022-12-08T12:09:07.660Z,974.45
2022-12-08T12:10:08.005Z,974.44
2022-12-08T12:11:07.651Z,974.42
2022-12-08T12:12:07.640Z,974.40
2022-12-08T12:13:07.635Z,974.40
2022-12-08T12:14:07.649Z,974.40
2022-12-08T12:15:07.616Z,974.40
2022-12-08T12:16:07.615Z,974.38
2022-12-08T12:17:07.665Z,974.38
2022-12-08T12:18:11.929Z,974.39
2022-12-08T12:19:08.616Z,974.36
2022-12-08T12:20:07.905Z,974.38
2022-12-08T12:21:07.669Z,974.37
2022-12-08T12:22:07.592Z,974.35
2022-12-08T12:23:07.579Z,974.34
2022-12-08T12:24:07.576Z,974.34
2022-12-08T12:25:07.585Z,974.33
2022-12-08T12:26:07.578Z,974.32
2022-12-08T12:27:07.566Z,974.33
2022-12-08T12:28:07.556Z,974.32
2022-12-08T12:29:07.539Z,974.32